sensor_id;sensor_type;location;lat;lon;timestamp;pressure;altitude;pressure_sealevel;temperature;humidity
23363;BME280;11853;48.080;11.960;2023-06-26T00:02:02;94929.31;;;19.53;62.38
23363;BME280;11853;48.080;11.960;2023-06-26T00:04:28;94933.47;;;19.56;63.63
23363;BME280;11853;48.080;11.960;2023-06-26T00:06:54;94931.19;;;19.59;64.49
23363;BME280;11853;48.080;11.960;2023-06-26T00:09:19;94924.78;;;19.61;64.05
23363;BME280;11853;48.080;11.960;2023-06-26T00:11:45;94918.97;;;19.57;63.42
23363;BME280;11853;48.080;11.960;2023-06-26T00:14:10;94919.81;;;19.57;64.12
23363;BME280;11853;48.080;11.960;2023-06-26T00:16:36;94917.91;;;19.51;63.01
23363;BME280;11853;48.080;11.960;2023-06-26T00:19:01;94906.56;;;19.49;63.66
23363;BME280;11853;48.080;11.960;2023-06-26T00:21:27;94915.84;;;19.53;63.33
23363;BME280;11853;48.080;11.960;2023-06-26T00:23:53;94922.28;;;19.52;63.66
23363;BME280;11853;48.080;11.960;2023-06-26T00:26:18;94915.22;;;19.51;64.36
23363;BME280;11853;48.080;11.960;2023-06-26T00:28:44;94916.06;;;19.45;64.30
23363;BME280;11853;48.080;11.960;2023-06-26T00:31:10;94916.88;;;19.39;64.41
23363;BME280;11853;48.080;11.960;2023-06-26T00:33:35;94921.25;;;19.40;64.13
23363;BME280;11853;48.080;11.960;2023-06-26T00:36:01;94914.59;;;19.36;64.17
23363;BME280;11853;48.080;11.960;2023-06-26T00:38:26;94905.72;;;19.29;64.47
23363;BME280;11853;48.080;11.960;2023-06-26T00:40:52;94915.63;;;19.28;64.96
23363;BME280;11853;48.080;11.960;2023-06-26T00:43:19;94909.41;;;19.28;64.65
23363;BME280;11853;48.080;11.960;2023-06-26T00:45:45;94907.78;;;19.27;64.59
23363;BME280;11853;48.080;11.960;2023-06-26T00:48:11;94917.91;;;19.25;65.10
23363;BME280;11853;48.080;11.960;2023-06-26T00:50:37;94918.72;;;19.19;65.22
23363;BME280;11853;48.080;11.960;2023-06-26T00:53:03;94921.41;;;19.19;64.89
23363;BME280;11853;48.080;11.960;2023-06-26T00:55:29;94925.75;;;19.13;65.70
23363;BME280;11853;48.080;11.960;2023-06-26T00:57:55;94923.47;;;19.10;64.73
23363;BME280;11853;48.080;11.960;2023-06-26T01:00:21;94926.34;;;19.08;65.40
23363;BME280;11853;48.080;11.960;2023-06-26T01:02:47;94923.03;;;19.06;66.52
23363;BME280;11853;48.080;11.960;2023-06-26T01:05:13;94927.78;;;19.04;66.73
23363;BME280;11853;48.080;11.960;2023-06-26T01:07:49;94927.16;;;19.02;67.63
23363;BME280;11853;48.080;11.960;2023-06-26T01:13:37;94929.25;;;19.00;68.23
23363;BME280;11853;48.080;11.960;2023-06-26T01:16:04;94921.59;;;18.97;67.93
23363;BME280;11853;48.080;11.960;2023-06-26T01:18:32;94920.72;;;18.90;66.81
23363;BME280;11853;48.080;11.960;2023-06-26T01:20:58;94922.59;;;18.89;67.20
23363;BME280;11853;48.080;11.960;2023-06-26T01:23:38;94916.38;;;18.89;66.41
23363;BME280;11853;48.080;11.960;2023-06-26T01:26:19;94927.97;;;18.89;66.50
23363;BME280;11853;48.080;11.960;2023-06-26T01:28:47;94922.78;;;18.88;66.95
23363;BME280;11853;48.080;11.960;2023-06-26T01:31:15;94919.25;;;18.87;68.02
23363;BME280;11853;48.080;11.960;2023-06-26T01:33:41;94910.56;;;18.85;68.33
23363;BME280;11853;48.080;11.960;2023-06-26T01:36:08;94913.88;;;18.81;68.81
23363;BME280;11853;48.080;11.960;2023-06-26T01:38:34;94910.78;;;18.77;68.68
23363;BME280;11853;48.080;11.960;2023-06-26T01:41:03;94915.69;;;18.74;67.64
23363;BME280;11853;48.080;11.960;2023-06-26T01:43:32;94917.94;;;18.70;65.48
23363;BME280;11853;48.080;11.960;2023-06-26T01:47:02;94916.06;;;18.71;66.17
23363;BME280;11853;48.080;11.960;2023-06-26T01:51:38;94911.09;;;18.67;67.79
23363;BME280;11853;48.080;11.960;2023-06-26T01:54:10;94906.53;;;18.68;67.34
23363;BME280;11853;48.080;11.960;2023-06-26T01:56:39;94907.16;;;18.63;66.38
23363;BME280;11853;48.080;11.960;2023-06-26T01:59:05;94911.72;;;18.63;66.68
23363;BME280;11853;48.080;11.960;2023-06-26T02:01:33;94910.03;;;18.62;66.76
23363;BME280;11853;48.080;11.960;2023-06-26T02:03:59;94911.28;;;18.59;67.47
23363;BME280;11853;48.080;11.960;2023-06-26T02:06:25;94906.94;;;18.58;69.09
23363;BME280;11853;48.080;11.960;2023-06-26T02:08:51;94917.03;;;18.56;69.14
23363;BME280;11853;48.080;11.960;2023-06-26T02:11:16;94917.44;;;18.53;68.34
23363;BME280;11853;48.080;11.960;2023-06-26T02:13:42;94914.13;;;18.51;69.11
23363;BME280;11853;48.080;11.960;2023-06-26T02:16:08;94921.56;;;18.49;68.97
23363;BME280;11853;48.080;11.960;2023-06-26T02:18:34;94919.06;;;18.48;68.52
23363;BME280;11853;48.080;11.960;2023-06-26T02:20:59;94919.47;;;18.44;68.88
23363;BME280;11853;48.080;11.960;2023-06-26T02:23:25;94917.84;;;18.43;68.76
23363;BME280;11853;48.080;11.960;2023-06-26T02:25:51;94917.41;;;18.40;68.66
23363;BME280;11853;48.080;11.960;2023-06-26T02:28:17;94921.75;;;18.41;69.46
23363;BME280;11853;48.080;11.960;2023-06-26T02:30:42;94921.91;;;18.33;69.41
23363;BME280;11853;48.080;11.960;2023-06-26T02:33:08;94925.63;;;18.32;68.66
23363;BME280;11853;48.080;11.960;2023-06-26T02:35:34;94917.72;;;18.23;68.38
23363;BME280;11853;48.080;11.960;2023-06-26T02:37:59;94917.72;;;18.23;66.83
23363;BME280;11853;48.080;11.960;2023-06-26T02:40:25;94920.81;;;18.20;67.35
23363;BME280;11853;48.080;11.960;2023-06-26T02:42:51;94930.91;;;18.18;67.81
23363;BME280;11853;48.080;11.960;2023-06-26T02:45:16;94921.41;;;18.16;68.25
23363;BME280;11853;48.080;11.960;2023-06-26T02:47:42;94928.41;;;18.17;68.25
23363;BME280;11853;48.080;11.960;2023-06-26T02:50:08;94921.00;;;18.19;68.58
23363;BME280;11853;48.080;11.960;2023-06-26T02:52:34;94919.13;;;18.19;68.66
23363;BME280;11853;48.080;11.960;2023-06-26T02:54:59;94932.16;;;18.22;68.40
23363;BME280;11853;48.080;11.960;2023-06-26T02:57:25;94932.56;;;18.19;68.86
23363;BME280;11853;48.080;11.960;2023-06-26T02:59:51;94923.66;;;18.12;70.14
23363;BME280;11853;48.080;11.960;2023-06-26T03:02:16;94925.69;;;18.10;71.46
23363;BME280;11853;48.080;11.960;2023-06-26T03:04:42;94921.97;;;18.11;71.85
23363;BME280;11853;48.080;11.960;2023-06-26T03:07:09;94927.16;;;18.13;72.45
23363;BME280;11853;48.080;11.960;2023-06-26T03:09:34;94929.03;;;18.12;71.96
23363;BME280;11853;48.080;11.960;2023-06-26T03:18:47;94928.25;;;17.90;71.76
23363;BME280;11853;48.080;11.960;2023-06-26T03:21:13;94927.44;;;17.90;71.31
23363;BME280;11853;48.080;11.960;2023-06-26T03:23:39;94924.75;;;17.90;70.93
23363;BME280;11853;48.080;11.960;2023-06-26T03:26:04;94927.25;;;17.91;71.08
23363;BME280;11853;48.080;11.960;2023-06-26T03:28:30;94926.78;;;17.88;70.27
23363;BME280;11853;48.080;11.960;2023-06-26T03:30:56;94927.19;;;17.85;68.84
23363;BME280;11853;48.080;11.960;2023-06-26T03:33:22;94921.16;;;17.83;69.45
23363;BME280;11853;48.080;11.960;2023-06-26T03:35:47;94926.75;;;17.81;69.51
23363;BME280;11853;48.080;11.960;2023-06-26T03:38:13;94930.47;;;17.80;69.58
23363;BME280;11853;48.080;11.960;2023-06-26T03:40:39;94929.81;;;17.78;69.90
23363;BME280;11853;48.080;11.960;2023-06-26T03:43:04;94931.47;;;17.79;69.97
23363;BME280;11853;48.080;11.960;2023-06-26T03:45:30;94931.91;;;17.83;69.79
23363;BME280;11853;48.080;11.960;2023-06-26T03:47:55;94937.28;;;17.83;69.70
23363;BME280;11853;48.080;11.960;2023-06-26T03:50:21;94935.44;;;17.83;69.99
23363;BME280;11853;48.080;11.960;2023-06-26T03:52:46;94931.06;;;17.82;69.80
23363;BME280;11853;48.080;11.960;2023-06-26T03:55:12;94934.41;;;17.84;70.15
23363;BME280;11853;48.080;11.960;2023-06-26T03:57:38;94935.22;;;17.85;70.51
23363;BME280;11853;48.080;11.960;2023-06-26T04:00:04;94935.22;;;17.85;70.91
23363;BME280;11853;48.080;11.960;2023-06-26T04:02:37;94937.34;;;17.89;71.11
23363;BME280;11853;48.080;11.960;2023-06-26T04:05:04;94941.09;;;17.95;71.80
23363;BME280;11853;48.080;11.960;2023-06-26T04:07:30;94938.03;;;17.98;72.68
23363;BME280;11853;48.080;11.960;2023-06-26T04:09:59;94928.28;;;17.97;72.61
23363;BME280;11853;48.080;11.960;2023-06-26T04:12:25;94930.16;;;17.96;73.52
23363;BME280;11853;48.080;11.960;2023-06-26T04:14:50;94931.44;;;18.00;74.22
23363;BME280;11853;48.080;11.960;2023-06-26T04:17:16;94930.44;;;18.08;74.56
23363;BME280;11853;48.080;11.960;2023-06-26T04:19:41;94930.44;;;18.08;75.06
23363;BME280;11853;48.080;11.960;2023-06-26T04:22:07;94932.94;;;18.10;75.59
23363;BME280;11853;48.080;11.960;2023-06-26T04:24:32;94935.19;;;18.06;74.95
23363;BME280;11853;48.080;11.960;2023-06-26T04:26:58;94936.66;;;18.09;74.65
23363;BME280;11853;48.080;11.960;2023-06-26T04:29:25;94936.88;;;18.14;75.24
23363;BME280;11853;48.080;11.960;2023-06-26T04:31:52;94929.69;;;18.21;75.73
23363;BME280;11853;48.080;11.960;2023-06-26T04:34:26;94938.41;;;18.30;76.40
23363;BME280;11853;48.080;11.960;2023-06-26T04:36:52;94944.44;;;18.32;75.44
23363;BME280;11853;48.080;11.960;2023-06-26T04:39:18;94942.19;;;18.42;73.91
23363;BME280;11853;48.080;11.960;2023-06-26T04:41:45;94939.75;;;18.47;69.91
23363;BME280;11853;48.080;11.960;2023-06-26T04:44:10;94947.41;;;18.50;69.07
23363;BME280;11853;48.080;11.960;2023-06-26T04:46:37;94944.97;;;18.62;66.70
23363;BME280;11853;48.080;11.960;2023-06-26T04:49:07;94941.88;;;18.58;67.04
23363;BME280;11853;48.080;11.960;2023-06-26T04:51:33;94942.94;;;18.64;66.14
23363;BME280;11853;48.080;11.960;2023-06-26T04:53:58;94935.69;;;18.64;65.62
23363;BME280;11853;48.080;11.960;2023-06-26T04:56:24;94933.09;;;18.78;64.86
23363;BME280;11853;48.080;11.960;2023-06-26T04:58:50;94936.59;;;18.78;65.95
23363;BME280;11853;48.080;11.960;2023-06-26T05:01:15;94937.19;;;18.74;65.78
23363;BME280;11853;48.080;11.960;2023-06-26T05:03:41;94939.09;;;18.80;65.55
23363;BME280;11853;48.080;11.960;2023-06-26T05:06:06;94935.81;;;18.91;66.66
23363;BME280;11853;48.080;11.960;2023-06-26T05:08:32;94943.28;;;19.02;65.49
23363;BME280;11853;48.080;11.960;2023-06-26T05:10:57;94946.84;;;19.09;63.43
23363;BME280;11853;48.080;11.960;2023-06-26T05:13:24;94948.31;;;19.12;63.31
23363;BME280;11853;48.080;11.960;2023-06-26T05:15:51;94945.22;;;19.15;63.44
23363;BME280;11853;48.080;11.960;2023-06-26T05:18:17;94943.34;;;19.22;62.67
23363;BME280;11853;48.080;11.960;2023-06-26T05:20:43;94936.53;;;19.26;61.95
23363;BME280;11853;48.080;11.960;2023-06-26T05:23:11;94933.03;;;19.26;63.10
23363;BME280;11853;48.080;11.960;2023-06-26T05:25:37;94932.41;;;19.37;63.39
23363;BME280;11853;48.080;11.960;2023-06-26T05:28:03;94935.72;;;19.46;62.78
23363;BME280;11853;48.080;11.960;2023-06-26T05:30:33;94929.53;;;19.52;61.51
23363;BME280;11853;48.080;11.960;2023-06-26T05:33:02;94931.78;;;19.35;60.99
23363;BME280;11853;48.080;11.960;2023-06-26T05:35:29;94930.34;;;19.52;61.99
23363;BME280;11853;48.080;11.960;2023-06-26T05:37:56;94938.44;;;19.66;60.99
23363;BME280;11853;48.080;11.960;2023-06-26T05:40:22;94933.31;;;19.77;61.05
23363;BME280;11853;48.080;11.960;2023-06-26T05:42:48;94941.78;;;19.81;61.43
23363;BME280;11853;48.080;11.960;2023-06-26T05:45:14;94932.44;;;19.90;61.46
23363;BME280;11853;48.080;11.960;2023-06-26T05:47:40;94939.50;;;19.98;61.53
23363;BME280;11853;48.080;11.960;2023-06-26T05:50:07;94931.41;;;20.05;60.49
23363;BME280;11853;48.080;11.960;2023-06-26T05:52:33;94933.47;;;20.16;60.16
23363;BME280;11853;48.080;11.960;2023-06-26T05:54:59;94929.50;;;20.25;59.93
23363;BME280;11853;48.080;11.960;2023-06-26T05:57:28;94932.63;;;20.22;60.19
23363;BME280;11853;48.080;11.960;2023-06-26T05:59:55;94938.81;;;20.22;59.71
23363;BME280;11853;48.080;11.960;2023-06-26T06:02:21;94929.50;;;20.32;60.54
23363;BME280;11853;48.080;11.960;2023-06-26T06:04:47;94936.09;;;20.42;61.34
23363;BME280;11853;48.080;11.960;2023-06-26T06:07:13;94929.66;;;20.57;61.68
23363;BME280;11853;48.080;11.960;2023-06-26T06:09:38;94932.94;;;20.65;61.93
23363;BME280;11853;48.080;11.960;2023-06-26T06:12:07;94931.69;;;20.75;62.81
23363;BME280;11853;48.080;11.960;2023-06-26T06:14:33;94931.66;;;20.81;63.39
23363;BME280;11853;48.080;11.960;2023-06-26T06:16:59;94930.78;;;20.87;62.64
23363;BME280;11853;48.080;11.960;2023-06-26T06:19:25;94927.88;;;20.89;60.42
23363;BME280;11853;48.080;11.960;2023-06-26T06:21:50;94924.91;;;21.04;61.21
23363;BME280;11853;48.080;11.960;2023-06-26T06:24:16;94930.28;;;21.04;61.66
23363;BME280;11853;48.080;11.960;2023-06-26T06:26:42;94928.59;;;21.09;61.58
23363;BME280;11853;48.080;11.960;2023-06-26T06:29:07;94928.56;;;21.16;61.88
23363;BME280;11853;48.080;11.960;2023-06-26T06:31:33;94935.53;;;21.30;61.56
23363;BME280;11853;48.080;11.960;2023-06-26T06:33:58;94927.97;;;21.46;62.13
23363;BME280;11853;48.080;11.960;2023-06-26T06:36:24;94927.91;;;21.59;62.08
23363;BME280;11853;48.080;11.960;2023-06-26T06:38:50;94932.78;;;21.69;61.78
23363;BME280;11853;48.080;11.960;2023-06-26T06:41:15;94934.78;;;21.80;61.83
23363;BME280;11853;48.080;11.960;2023-06-26T06:43:41;94935.06;;;21.97;62.78
23363;BME280;11853;48.080;11.960;2023-06-26T06:46:08;94937.22;;;22.13;62.69
23363;BME280;11853;48.080;11.960;2023-06-26T06:48:34;94929.38;;;22.30;62.66
23363;BME280;11853;48.080;11.960;2023-06-26T06:50:59;94935.50;;;22.44;61.96
23363;BME280;11853;48.080;11.960;2023-06-26T06:53:25;94925.41;;;22.51;59.60
23363;BME280;11853;48.080;11.960;2023-06-26T06:55:51;94933.03;;;22.61;58.26
23363;BME280;11853;48.080;11.960;2023-06-26T06:58:16;94935.03;;;22.65;58.36
23363;BME280;11853;48.080;11.960;2023-06-26T07:00:44;94934.72;;;22.74;59.48
23363;BME280;11853;48.080;11.960;2023-06-26T07:03:10;94931.56;;;22.77;59.15
23363;BME280;11853;48.080;11.960;2023-06-26T07:05:36;94933.59;;;22.81;58.04
23363;BME280;11853;48.080;11.960;2023-06-26T07:08:02;94933.75;;;22.86;57.27
23363;BME280;11853;48.080;11.960;2023-06-26T07:10:28;94933.31;;;22.89;57.61
23363;BME280;11853;48.080;11.960;2023-06-26T07:12:54;94928.91;;;22.95;57.54
23363;BME280;11853;48.080;11.960;2023-06-26T07:15:20;94930.69;;;23.01;57.47
23363;BME280;11853;48.080;11.960;2023-06-26T07:17:45;94936.59;;;23.10;58.07
23363;BME280;11853;48.080;11.960;2023-06-26T07:20:11;94941.47;;;23.20;57.02
23363;BME280;11853;48.080;11.960;2023-06-26T07:22:41;94934.09;;;23.27;57.94
23363;BME280;11853;48.080;11.960;2023-06-26T07:25:07;94932.25;;;23.39;58.33
23363;BME280;11853;48.080;11.960;2023-06-26T07:27:37;94926.50;;;23.47;57.49
23363;BME280;11853;48.080;11.960;2023-06-26T07:30:03;94919.56;;;23.51;57.11
23363;BME280;11853;48.080;11.960;2023-06-26T07:32:28;94924.44;;;23.61;58.02
23363;BME280;11853;48.080;11.960;2023-06-26T07:34:54;94929.13;;;23.66;56.46
23363;BME280;11853;48.080;11.960;2023-06-26T07:37:20;94939.31;;;23.70;54.84
23363;BME280;11853;48.080;11.960;2023-06-26T07:39:45;94930.13;;;23.71;54.70
23363;BME280;11853;48.080;11.960;2023-06-26T07:42:11;94922.25;;;23.81;57.02
23363;BME280;11853;48.080;11.960;2023-06-26T07:44:36;94923.91;;;23.94;57.45
23363;BME280;11853;48.080;11.960;2023-06-26T07:47:02;94930.53;;;23.98;55.59
23363;BME280;11853;48.080;11.960;2023-06-26T07:49:28;94930.41;;;24.05;55.49
23363;BME280;11853;48.080;11.960;2023-06-26T07:51:54;94930.88;;;24.14;56.43
23363;BME280;11853;48.080;11.960;2023-06-26T07:54:20;94926.75;;;24.23;55.49
23363;BME280;11853;48.080;11.960;2023-06-26T07:59:19;94924.75;;;24.42;55.16
23363;BME280;11853;48.080;11.960;2023-06-26T08:01:46;94926.06;;;24.51;55.16
23363;BME280;11853;48.080;11.960;2023-06-26T08:04:12;94916.28;;;24.62;54.30
23363;BME280;11853;48.080;11.960;2023-06-26T08:06:37;94922.63;;;24.67;53.20
23363;BME280;11853;48.080;11.960;2023-06-26T08:09:06;94918.13;;;24.73;53.18
23363;BME280;11853;48.080;11.960;2023-06-26T08:11:33;94919.16;;;24.84;54.01
23363;BME280;11853;48.080;11.960;2023-06-26T08:13:59;94919.16;;;24.95;53.81
23363;BME280;11853;48.080;11.960;2023-06-26T08:16:24;94916.28;;;25.02;52.74
23363;BME280;11853;48.080;11.960;2023-06-26T08:18:50;94910.97;;;25.07;52.47
23363;BME280;11853;48.080;11.960;2023-06-26T08:21:16;94917.53;;;25.11;52.75
23363;BME280;11853;48.080;11.960;2023-06-26T08:23:42;94914.47;;;25.20;53.62
23363;BME280;11853;48.080;11.960;2023-06-26T08:26:07;94914.69;;;25.30;53.97
23363;BME280;11853;48.080;11.960;2023-06-26T08:28:33;94915.94;;;25.39;52.47
23363;BME280;11853;48.080;11.960;2023-06-26T08:30:59;94920.13;;;25.47;51.35
23363;BME280;11853;48.080;11.960;2023-06-26T08:33:25;94919.84;;;25.60;52.95
23363;BME280;11853;48.080;11.960;2023-06-26T08:35:51;94915.09;;;25.67;51.88
23363;BME280;11853;48.080;11.960;2023-06-26T08:38:16;94911.13;;;25.75;49.83
23363;BME280;11853;48.080;11.960;2023-06-26T08:40:42;94905.78;;;25.80;49.41
23363;BME280;11853;48.080;11.960;2023-06-26T08:43:08;94901.59;;;25.89;49.75
23363;BME280;11853;48.080;11.960;2023-06-26T08:45:35;94905.00;;;25.96;49.95
23363;BME280;11853;48.080;11.960;2023-06-26T08:48:01;94902.69;;;26.05;48.69
23363;BME280;11853;48.080;11.960;2023-06-26T08:50:30;94911.47;;;26.12;48.74
23363;BME280;11853;48.080;11.960;2023-06-26T08:55:46;94913.28;;;26.23;48.67
23363;BME280;11853;48.080;11.960;2023-06-26T08:58:14;94914.44;;;26.27;47.66
23363;BME280;11853;48.080;11.960;2023-06-26T09:00:40;94916.16;;;26.34;48.56
23363;BME280;11853;48.080;11.960;2023-06-26T09:03:07;94906.19;;;26.39;48.01
23363;BME280;11853;48.080;11.960;2023-06-26T09:05:34;94909.81;;;26.45;48.48
23363;BME280;11853;48.080;11.960;2023-06-26T09:08:00;94901.13;;;26.48;48.04
23363;BME280;11853;48.080;11.960;2023-06-26T09:10:26;94905.03;;;26.52;48.16
23363;BME280;11853;48.080;11.960;2023-06-26T09:12:55;94907.31;;;26.60;49.29
23363;BME280;11853;48.080;11.960;2023-06-26T09:15:20;94901.94;;;26.65;48.49
23363;BME280;11853;48.080;11.960;2023-06-26T09:17:48;94895.75;;;26.70;48.53
23363;BME280;11853;48.080;11.960;2023-06-26T09:20:13;94892.75;;;26.71;49.21
23363;BME280;11853;48.080;11.960;2023-06-26T09:22:42;94889.59;;;26.80;48.66
23363;BME280;11853;48.080;11.960;2023-06-26T09:25:09;94888.59;;;26.86;48.68
23363;BME280;11853;48.080;11.960;2023-06-26T09:27:35;94887.56;;;26.92;48.23
23363;BME280;11853;48.080;11.960;2023-06-26T09:30:06;94878.38;;;26.98;48.56
23363;BME280;11853;48.080;11.960;2023-06-26T09:32:35;94882.84;;;27.04;49.15
23363;BME280;11853;48.080;11.960;2023-06-26T09:35:03;94881.47;;;27.07;48.14
23363;BME280;11853;48.080;11.960;2023-06-26T09:37:29;94884.09;;;26.96;45.88
23363;BME280;11853;48.080;11.960;2023-06-26T09:39:54;94888.91;;;26.89;46.29
23363;BME280;11853;48.080;11.960;2023-06-26T09:42:20;94883.88;;;26.81;46.92
23363;BME280;11853;48.080;11.960;2023-06-26T09:44:47;94883.66;;;26.83;47.72
23363;BME280;11853;48.080;11.960;2023-06-26T09:47:18;94881.44;;;26.80;47.69
23363;BME280;11853;48.080;11.960;2023-06-26T09:49:44;94871.81;;;26.72;46.56
23363;BME280;11853;48.080;11.960;2023-06-26T09:52:14;94874.16;;;26.63;45.64
23363;BME280;11853;48.080;11.960;2023-06-26T09:54:42;94865.97;;;26.63;45.66
23363;BME280;11853;48.080;11.960;2023-06-26T09:57:10;94865.84;;;26.75;46.36
23363;BME280;11853;48.080;11.960;2023-06-26T09:59:36;94857.50;;;26.82;46.14
23363;BME280;11853;48.080;11.960;2023-06-26T10:02:02;94860.53;;;26.85;46.96
23363;BME280;11853;48.080;11.960;2023-06-26T10:04:28;94860.91;;;26.94;47.87
23363;BME280;11853;48.080;11.960;2023-06-26T10:06:58;94862.75;;;27.10;48.27
23363;BME280;11853;48.080;11.960;2023-06-26T10:09:24;94860.19;;;27.26;46.88
23363;BME280;11853;48.080;11.960;2023-06-26T10:11:58;94860.91;;;27.43;44.70
23363;BME280;11853;48.080;11.960;2023-06-26T10:14:27;94852.31;;;27.56;44.17
23363;BME280;11853;48.080;11.960;2023-06-26T10:16:58;94851.53;;;27.61;43.72
23363;BME280;11853;48.080;11.960;2023-06-26T10:19:27;94849.38;;;27.63;43.91
23363;BME280;11853;48.080;11.960;2023-06-26T10:21:54;94852.38;;;27.67;44.10
23363;BME280;11853;48.080;11.960;2023-06-26T10:24:23;94850.81;;;27.71;42.84
23363;BME280;11853;48.080;11.960;2023-06-26T10:26:52;94854.13;;;27.78;43.03
23363;BME280;11853;48.080;11.960;2023-06-26T10:29:22;94854.19;;;27.83;42.98
23363;BME280;11853;48.080;11.960;2023-06-26T10:31:55;94845.53;;;27.91;43.72
23363;BME280;11853;48.080;11.960;2023-06-26T10:34:22;94854.06;;;28.00;43.63
23363;BME280;11853;48.080;11.960;2023-06-26T10:36:59;94844.56;;;28.07;43.39
23363;BME280;11853;48.080;11.960;2023-06-26T10:39:25;94844.81;;;28.06;44.52
23363;BME280;11853;48.080;11.960;2023-06-26T10:41:54;94848.31;;;28.01;43.44
23363;BME280;11853;48.080;11.960;2023-06-26T10:44:20;94860.94;;;28.07;43.56
23363;BME280;11853;48.080;11.960;2023-06-26T10:46:54;94849.94;;;27.97;43.01
23363;BME280;11853;48.080;11.960;2023-06-26T10:49:21;94846.53;;;27.80;42.23
23363;BME280;11853;48.080;11.960;2023-06-26T10:51:50;94843.00;;;27.79;43.53
23363;BME280;11853;48.080;11.960;2023-06-26T10:54:17;94842.19;;;27.79;44.32
23363;BME280;11853;48.080;11.960;2023-06-26T10:56:48;94840.56;;;27.83;45.74
23363;BME280;11853;48.080;11.960;2023-06-26T10:59:18;94830.91;;;27.75;44.94
23363;BME280;11853;48.080;11.960;2023-06-26T11:02:27;94826.63;;;27.79;43.49
23363;BME280;11853;48.080;11.960;2023-06-26T11:04:46;94838.94;;;27.87;43.63
23363;BME280;11853;48.080;11.960;2023-06-26T11:07:23;94835.22;;;27.98;44.79
23363;BME280;11853;48.080;11.960;2023-06-26T11:09:59;94833.38;;;28.09;44.74
23363;BME280;11853;48.080;11.960;2023-06-26T11:12:48;94826.63;;;28.17;42.55
23363;BME280;11853;48.080;11.960;2023-06-26T11:15:16;94828.53;;;28.21;44.16
23363;BME280;11853;48.080;11.960;2023-06-26T11:17:43;94828.56;;;28.26;44.29
23363;BME280;11853;48.080;11.960;2023-06-26T11:20:14;94826.69;;;28.32;41.64
23363;BME280;11853;48.080;11.960;2023-06-26T11:22:41;94826.44;;;28.34;43.15
23363;BME280;11853;48.080;11.960;2023-06-26T11:25:09;94825.09;;;28.41;43.65
23363;BME280;11853;48.080;11.960;2023-06-26T11:27:38;94824.09;;;28.47;40.92
23363;BME280;11853;48.080;11.960;2023-06-26T11:30:05;94827.34;;;28.44;41.47
23363;BME280;11853;48.080;11.960;2023-06-26T11:32:31;94826.84;;;28.47;41.86
23363;BME280;11853;48.080;11.960;2023-06-26T11:35:01;94826.28;;;28.50;41.63
23363;BME280;11853;48.080;11.960;2023-06-26T11:37:27;94819.72;;;28.46;40.41
23363;BME280;11853;48.080;11.960;2023-06-26T11:39:52;94810.88;;;28.34;40.86
23363;BME280;11853;48.080;11.960;2023-06-26T11:42:20;94820.72;;;28.35;41.76
23363;BME280;11853;48.080;11.960;2023-06-26T11:44:47;94816.91;;;28.41;41.62
23363;BME280;11853;48.080;11.960;2023-06-26T11:47:17;94812.66;;;28.50;40.70
23363;BME280;11853;48.080;11.960;2023-06-26T11:49:47;94816.63;;;28.38;39.14
23363;BME280;11853;48.080;11.960;2023-06-26T11:52:14;94819.03;;;28.29;39.85
23363;BME280;11853;48.080;11.960;2023-06-26T11:54:41;94815.22;;;28.25;41.26
23363;BME280;11853;48.080;11.960;2023-06-26T11:57:07;94816.88;;;28.31;40.26
23363;BME280;11853;48.080;11.960;2023-06-26T11:59:42;94812.22;;;28.32;40.76
23363;BME280;11853;48.080;11.960;2023-06-26T12:02:14;94813.06;;;28.32;40.15
23363;BME280;11853;48.080;11.960;2023-06-26T12:04:41;94805.97;;;28.31;40.84
23363;BME280;11853;48.080;11.960;2023-06-26T12:07:08;94804.91;;;28.37;40.51
23363;BME280;11853;48.080;11.960;2023-06-26T12:09:43;94804.41;;;28.45;39.59
23363;BME280;11853;48.080;11.960;2023-06-26T12:12:14;94805.28;;;28.61;42.38
23363;BME280;11853;48.080;11.960;2023-06-26T12:14:40;94795.78;;;28.69;40.95
23363;BME280;11853;48.080;11.960;2023-06-26T12:17:10;94792.78;;;28.75;40.20
23363;BME280;11853;48.080;11.960;2023-06-26T12:19:54;94800.44;;;28.79;40.90
23363;BME280;11853;48.080;11.960;2023-06-26T12:22:19;94796.91;;;28.78;40.41
23363;BME280;11853;48.080;11.960;2023-06-26T12:24:46;94795.22;;;28.67;39.88
23363;BME280;11853;48.080;11.960;2023-06-26T12:27:13;94803.91;;;28.59;40.85
23363;BME280;11853;48.080;11.960;2023-06-26T12:29:42;94793.59;;;28.66;41.14
23363;BME280;11853;48.080;11.960;2023-06-26T12:32:09;94799.09;;;28.76;40.78
23363;BME280;11853;48.080;11.960;2023-06-26T12:34:37;94794.97;;;28.79;40.82
23363;BME280;11853;48.080;11.960;2023-06-26T12:37:09;94788.72;;;28.83;40.25
23363;BME280;11853;48.080;11.960;2023-06-26T12:39:50;94794.69;;;28.75;40.42
23363;BME280;11853;48.080;11.960;2023-06-26T12:42:21;94800.13;;;28.70;39.76
23363;BME280;11853;48.080;11.960;2023-06-26T12:44:47;94791.38;;;28.63;39.67
23363;BME280;11853;48.080;11.960;2023-06-26T12:47:14;94793.53;;;28.56;41.07
23363;BME280;11853;48.080;11.960;2023-06-26T12:49:41;94789.22;;;28.65;41.11
23363;BME280;11853;48.080;11.960;2023-06-26T12:52:12;94790.31;;;28.69;40.75
23363;BME280;11853;48.080;11.960;2023-06-26T12:54:42;94786.47;;;28.70;39.82
23363;BME280;11853;48.080;11.960;2023-06-26T12:57:08;94791.44;;;28.83;41.45
23363;BME280;11853;48.080;11.960;2023-06-26T12:59:38;94787.94;;;28.88;41.73
23363;BME280;11853;48.080;11.960;2023-06-26T13:02:04;94787.69;;;29.00;41.28
23363;BME280;11853;48.080;11.960;2023-06-26T13:04:30;94777.56;;;29.00;40.15
23363;BME280;11853;48.080;11.960;2023-06-26T13:06:56;94783.28;;;28.98;39.75
23363;BME280;11853;48.080;11.960;2023-06-26T13:09:23;94779.16;;;28.86;39.77